Time;durP1;ratioP1;P1;durP2;ratioP2;P2;SDS_P1;SDS_P2;PMS_P1;PMS_P2;Temp;Humidity;BMP_temperature;BMP_pressure;BME280_temperature;BME280_humidity;BME280_pressure;Samples;Min_cycle;Max_cycle;Signal;HPM_P1;HPM_P2
2022/01/04 00:00:53;;;;;;;4.38;2.30;;;;;;;4.62;100.00;97362.28;5174198;27;20186;-60
2022/01/04 00:03:20;;;;;;;2.45;2.25;;;;;;;4.62;100.00;97364.22;5174928;27;20053;-60
2022/01/04 00:05:46;;;;;;;5.07;2.75;;;;;;;4.65;100.00;97360.75;5174705;27;20097;-60
2022/01/04 00:08:13;;;;;;;3.72;2.53;;;;;;;4.62;100.00;97362.28;5175121;27;20094;-60
2022/01/04 00:10:39;;;;;;;3.45;2.38;;;;;;;4.60;100.00;97363.78;5174658;27;20080;-60
2022/01/04 00:13:22;;;;;;;2.70;2.00;;;;;;;4.58;100.00;97372.31;5174762;27;20130;-60
2022/01/04 00:15:50;;;;;;;5.97;1.80;;;;;;;4.59;100.00;97370.38;5174512;27;20104;-60
2022/01/04 00:18:17;;;;;;;3.97;1.73;;;;;;;4.60;100.00;97370.03;5174780;27;20521;-60
2022/01/04 00:20:44;;;;;;;4.97;1.85;;;;;;;4.58;100.00;97372.31;5174514;27;20054;-60
2022/01/04 00:23:10;;;;;;;3.75;1.75;;;;;;;4.60;100.00;97370.03;5174509;27;20455;-60
2022/01/04 00:25:37;;;;;;;3.75;2.10;;;;;;;4.61;100.00;97365.38;5174431;27;20050;-60
2022/01/04 00:28:07;;;;;;;3.78;2.08;;;;;;;4.59;100.00;97367.66;5174284;27;20069;-59
2022/01/04 00:30:33;;;;;;;3.53;2.22;;;;;;;4.63;100.00;97363.06;5174350;27;20094;-59
2022/01/04 00:33:00;;;;;;;4.78;2.50;;;;;;;4.62;100.00;97359.56;5174142;27;20063;-60
2022/01/04 00:35:27;;;;;;;6.25;2.97;;;;;;;4.65;100.00;97356.09;5174209;27;20050;-60
2022/01/04 00:37:53;;;;;;;2.70;2.50;;;;;;;4.67;100.00;97348.38;5174132;27;20057;-60
2022/01/04 00:40:19;;;;;;;4.30;2.47;;;;;;;4.68;100.00;97355.38;5174346;27;20042;-60
2022/01/04 00:42:46;;;;;;;5.90;2.60;;;;;;;4.65;100.00;97366.19;5173985;27;20619;-60
2022/01/04 00:45:12;;;;;;;3.63;2.70;;;;;;;4.65;100.00;97366.19;5174116;27;20596;-60
2022/01/04 00:47:45;;;;;;;7.40;2.60;;;;;;;4.65;100.00;97371.63;5173021;27;20424;-60
2022/01/04 00:50:12;;;;;;;5.47;2.72;;;;;;;4.61;100.00;97366.16;5173968;27;20050;-60
2022/01/04 00:52:39;;;;;;;2.60;2.40;;;;;;;4.65;100.00;97366.19;5174028;27;20054;-60
2022/01/04 00:55:06;;;;;;;4.75;3.05;;;;;;;4.64;100.00;97370.84;5173820;27;20532;-60
2022/01/04 00:57:32;;;;;;;3.85;2.80;;;;;;;4.63;100.00;97358.44;5174205;27;20046;-60
2022/01/04 00:59:58;;;;;;;5.28;2.92;;;;;;;4.66;100.00;97365.03;5173224;27;20149;-60
2022/01/04 01:02:25;;;;;;;6.07;2.80;;;;;;;4.66;100.00;97354.16;5174230;27;20046;-60
2022/01/04 01:04:51;;;;;;;5.03;2.70;;;;;;;4.71;100.00;97354.63;5173416;27;20085;-60
2022/01/04 01:07:18;;;;;;;5.03;2.70;;;;;;;4.67;100.00;97359.25;5173634;27;20046;-60
2022/01/04 01:09:59;;;;;;;4.55;2.83;;;;;;;4.64;100.00;97365.41;5173666;27;20085;-60
2022/01/04 01:12:25;;;;;;;4.10;2.92;;;;;;;4.61;100.00;97370.78;5173944;27;20042;-60
2022/01/04 01:14:51;;;;;;;3.75;2.67;;;;;;;4.58;100.00;97363.38;5173434;27;20050;-60
2022/01/04 01:17:17;;;;;;;5.22;3.10;;;;;;;4.55;100.00;97374.97;5173510;27;20050;-60
2022/01/04 01:19:44;;;;;;;4.50;3.10;;;;;;;4.55;100.00;97364.13;5173647;27;20054;-60
2022/01/04 01:22:10;;;;;;;5.97;3.20;;;;;;;4.57;100.00;97369.97;5173339;27;20055;-60
2022/01/04 01:24:37;;;;;;;5.70;3.20;;;;;;;4.59;100.00;97376.56;5173527;27;20061;-60
2022/01/04 01:27:03;;;;;;;5.32;3.20;;;;;;;4.61;100.00;97371.56;5173511;27;20497;-60
2022/01/04 01:29:30;;;;;;;5.20;2.90;;;;;;;4.62;100.00;97370.41;5173266;27;20549;-60
2022/01/04 01:31:56;;;;;;;6.00;3.10;;;;;;;4.64;100.00;97375.50;5173328;27;20046;-60
2022/01/04 01:34:23;;;;;;;8.13;3.50;;;;;;;4.66;100.00;97365.03;5173803;27;20155;-60
2022/01/04 01:36:49;;;;;;;8.13;3.33;;;;;;;4.62;100.00;97375.06;5173484;27;20177;-60
2022/01/04 01:39:16;;;;;;;6.50;3.90;;;;;;;4.64;100.00;97365.41;5173610;27;20046;-60
2022/01/04 01:41:43;;;;;;;5.35;3.38;;;;;;;4.63;100.00;97363.06;5173213;27;20050;-60
2022/01/04 01:44:09;;;;;;;6.38;3.58;;;;;;;4.61;100.00;97366.16;5173267;27;20085;-60
2022/01/04 01:46:35;;;;;;;9.80;3.85;;;;;;;4.63;100.00;97373.91;5173106;27;20072;-60
2022/01/04 01:49:01;;;;;;;8.10;4.25;;;;;;;4.63;100.00;97368.47;5172983;27;20110;-60
2022/01/04 01:51:31;;;;;;;5.47;3.38;;;;;;;4.63;100.00;97374.72;5173118;27;20102;-60
2022/01/04 01:53:58;;;;;;;6.18;3.65;;;;;;;4.63;100.00;97365.75;5173004;27;20096;-60
2022/01/04 01:56:24;;;;;;;6.53;3.75;;;;;;;4.69;100.00;97370.50;5173294;27;20472;-60
2022/01/04 01:58:51;;;;;;;6.97;3.55;;;;;;;4.70;100.00;97361.22;5172853;27;20053;-60
2022/01/04 02:01:17;;;;;;;8.82;3.30;;;;;;;4.65;100.00;97366.97;5172598;27;20050;-60
2022/01/04 02:03:45;;;;;;;7.93;3.58;;;;;;;4.64;100.00;97373.56;5172646;27;20050;-60
2022/01/04 02:06:11;;;;;;;7.78;3.75;;;;;;;4.62;100.00;97370.41;5172971;27;20054;-59
2022/01/04 02:08:37;;;;;;;8.98;3.58;;;;;;;4.64;100.00;97372.78;5172710;27;20133;-59
2022/01/04 02:11:04;;;;;;;6.00;3.75;;;;;;;4.68;100.00;97376.31;5172913;27;20420;-60
2022/01/04 02:13:31;;;;;;;8.75;3.55;;;;;;;4.69;100.00;97367.78;5172709;27;20064;-60
2022/01/04 02:15:58;;;;;;;7.60;3.85;;;;;;;4.74;100.00;97366.69;5172283;27;20050;-60
2022/01/04 02:18:24;;;;;;;8.50;4.00;;;;;;;4.76;100.00;97369.81;5172624;27;20054;-60
2022/01/04 02:20:51;;;;;;;6.30;4.00;;;;;;;4.77;100.00;97368.66;5172707;27;20443;-60
2022/01/04 02:23:17;;;;;;;7.72;4.43;;;;;;;4.78;100.00;97372.94;5172516;27;20049;-60
2022/01/04 02:25:44;;;;;;;5.28;3.83;;;;;;;4.75;100.00;97375.63;5172478;27;20054;-60
2022/01/04 02:28:11;;;;;;;7.38;3.60;;;;;;;4.78;100.00;97372.16;5172882;27;20050;-60
2022/01/04 02:30:37;;;;;;;7.28;4.30;;;;;;;4.78;100.00;97375.66;5172310;27;20046;-60
2022/01/04 02:33:04;;;;;;;5.88;3.50;;;;;;;4.79;100.00;97374.50;5172709;27;20046;-60
2022/01/04 02:35:31;;;;;;;8.68;3.47;;;;;;;4.74;100.00;97385.69;5172278;27;20054;-59
2022/01/04 02:38:00;;;;;;;7.72;3.33;;;;;;;4.65;100.00;97385.97;5172443;27;20046;-60
2022/01/04 02:40:26;;;;;;;5.43;3.53;;;;;;;4.74;100.00;97379.50;5172184;27;20042;-60
2022/01/04 02:42:54;;;;;;;3.80;2.88;;;;;;;4.75;100.00;97367.47;5172293;27;20050;-60
2022/01/04 02:45:20;;;;;;;8.93;3.70;;;;;;;4.79;100.00;97376.44;5172246;27;20137;-60
2022/01/04 02:47:46;;;;;;;8.93;3.85;;;;;;;4.75;100.00;97376.38;5172130;27;20052;-60
2022/01/04 02:50:13;;;;;;;6.70;3.63;;;;;;;4.71;100.00;97376.34;5172315;27;20046;-60
2022/01/04 02:52:39;;;;;;;7.25;3.90;;;;;;;4.74;100.00;97372.13;5171997;27;20046;-59
2022/01/04 02:55:10;;;;;;;4.93;3.17;;;;;;;4.76;100.00;97375.22;5172195;27;20053;-59
2022/01/04 02:57:37;;;;;;;10.25;4.03;;;;;;;4.77;100.00;97376.81;5172077;27;20092;-60
2022/01/04 03:00:06;;;;;;;5.93;3.60;;;;;;;4.77;100.00;97378.75;5171509;27;20071;-60
2022/01/04 03:02:32;;;;;;;5.50;3.50;;;;;;;4.74;100.00;97380.25;5172083;27;20058;-59
2022/01/04 03:04:58;;;;;;;8.85;3.95;;;;;;;4.70;100.00;97382.94;5172151;27;20047;-60
2022/01/04 03:07:25;;;;;;;7.63;3.92;;;;;;;4.72;100.00;97372.47;5171947;27;20081;-60
2022/01/04 03:09:51;;;;;;;4.95;3.65;;;;;;;4.77;100.00;97374.09;5172981;27;20466;-60
2022/01/04 03:12:18;;;;;;;8.45;4.15;;;;;;;4.70;100.00;97379.44;5175778;27;20424;-60
2022/01/04 03:14:44;;;;;;;11.32;4.45;;;;;;;4.69;100.00;97381.34;5175293;27;20110;-60
2022/01/04 03:17:10;;;;;;;5.18;3.50;;;;;;;4.75;100.00;97376.38;5175685;27;20133;-60
2022/01/04 03:19:37;;;;;;;12.52;4.28;;;;;;;4.75;100.00;97381.03;5175395;27;20046;-60
2022/01/04 03:22:04;;;;;;;7.55;3.90;;;;;;;4.79;100.00;97379.16;5175858;27;20084;-60
2022/01/04 03:24:30;;;;;;;4.20;3.63;;;;;;;4.77;100.00;97382.25;5175418;27;20053;-60
2022/01/04 03:26:56;;;;;;;7.13;3.88;;;;;;;4.74;100.00;97385.69;5175552;27;20094;-60
2022/01/04 03:29:23;;;;;;;6.55;4.13;;;;;;;4.79;100.00;97381.84;5175376;27;20046;-60
2022/01/04 03:31:51;;;;;;;7.15;5.07;;;;;;;4.82;100.00;97389.28;5175475;27;20045;-60
2022/01/04 03:34:17;;;;;;;8.43;3.75;;;;;;;4.85;100.00;97389.31;5175057;27;20047;-60
2022/01/04 03:36:43;;;;;;;9.23;3.90;;;;;;;4.83;100.00;97385.38;5175166;27;20046;-60
2022/01/04 03:39:11;;;;;;;7.80;4.53;;;;;;;4.83;100.00;97382.69;5175326;27;20050;-60
2022/01/04 03:41:41;;;;;;;7.35;4.00;;;;;;;4.86;100.00;97390.09;5175054;27;20081;-60
2022/01/04 03:44:10;;;;;;;8.27;4.22;;;;;;;4.89;100.00;97384.69;5175189;27;20137;-60
2022/01/04 03:46:37;;;;;;;6.47;4.57;;;;;;;4.95;100.00;97385.16;5174863;27;20050;-60
2022/01/04 03:49:04;;;;;;;6.47;4.10;;;;;;;4.89;100.00;97389.34;5175184;27;20042;-60
2022/01/04 03:51:30;;;;;;;7.13;4.38;;;;;;;4.87;100.00;97380.81;5175085;27;20053;-60
2022/01/04 03:53:57;;;;;;;10.00;4.93;;;;;;;4.89;100.00;97386.63;5175131;27;20046;-60
2022/01/04 03:56:23;;;;;;;7.60;4.40;;;;;;;4.90;100.00;97393.66;5174876;27;20053;-60
2022/01/04 03:58:50;;;;;;;9.88;5.20;;;;;;;4.88;100.00;97387.78;5175214;27;20061;-60
2022/01/04 04:01:16;;;;;;;7.90;5.45;;;;;;;4.84;100.00;97392.41;5174357;27;20050;-60
2022/01/04 04:03:43;;;;;;;10.48;6.20;;;;;;;4.85;100.00;97396.69;5174788;27;20428;-60
2022/01/04 04:06:09;;;;;;;11.70;6.07;;;;;;;4.84;100.00;97393.19;5174758;27;20071;-60
2022/01/04 04:08:36;;;;;;;9.50;5.30;;;;;;;4.82;100.00;97398.19;5174560;27;20068;-60
2022/01/04 04:11:02;;;;;;;8.20;4.65;;;;;;;4.80;100.00;97403.22;5174713;27;20137;-60
2022/01/04 04:13:28;;;;;;;11.07;5.88;;;;;;;4.80;100.00;97403.22;5174439;27;20129;-60
2022/01/04 04:15:54;;;;;;;9.32;5.95;;;;;;;4.77;100.00;97393.09;5174665;27;20089;-61
2022/01/04 04:18:21;;;;;;;10.07;5.82;;;;;;;4.77;100.00;97403.97;5174542;27;20102;-61
2022/01/04 04:20:48;;;;;;;19.58;5.88;;;;;;;4.80;100.00;97399.69;5173544;27;20050;-62
2022/01/04 04:23:14;;;;;;;9.75;5.43;;;;;;;4.78;100.00;97404.75;5173836;27;20112;-63
2022/01/04 04:25:41;;;;;;;7.57;5.15;;;;;;;4.68;100.00;97398.03;5174690;27;20482;-62
2022/01/04 04:28:08;;;;;;;6.63;4.55;;;;;;;4.66;100.00;97401.09;5174180;27;20042;-62
2022/01/04 04:30:34;;;;;;;5.35;3.83;;;;;;;4.69;100.00;97389.50;5174392;27;20042;-62
2022/01/04 04:33:01;;;;;;;5.60;3.83;;;;;;;4.71;100.00;97394.56;5174705;27;20056;-62
2022/01/04 04:35:28;;;;;;;7.50;3.85;;;;;;;4.67;100.00;97380.97;5173901;27;20053;-66
2022/01/04 04:37:55;;;;;;;5.85;3.80;;;;;;;4.72;100.00;97377.13;5174177;27;20050;-65
2022/01/04 04:40:22;;;;;;;5.80;3.65;;;;;;;4.73;100.00;97381.41;5173855;27;20497;-65
2022/01/04 04:42:48;;;;;;;10.13;4.00;;;;;;;4.72;100.00;97383.34;5174076;27;20104;-64
2022/01/04 04:45:14;;;;;;;5.38;3.55;;;;;;;4.74;100.00;97379.50;5173820;27;20089;-63
2022/01/04 04:47:41;;;;;;;8.00;4.50;;;;;;;4.77;100.00;97376.03;5174275;27;20081;-65
2022/01/04 04:50:08;;;;;;;7.25;4.00;;;;;;;4.78;100.00;97369.44;5174001;27;20078;-66
2022/01/04 04:52:35;;;;;;;6.95;3.30;;;;;;;4.78;100.00;97372.16;5174244;27;20050;-67
2022/01/04 04:55:02;;;;;;;11.52;4.93;;;;;;;4.74;100.00;97379.50;5173835;27;20050;-66
2022/01/04 04:57:28;;;;;;;5.75;3.95;;;;;;;4.74;100.00;97379.50;5173931;27;20140;-65
2022/01/04 04:59:54;;;;;;;5.95;3.67;;;;;;;4.72;100.00;97377.91;5173531;27;20064;-63
2022/01/04 05:02:21;;;;;;;9.73;4.00;;;;;;;4.74;100.00;97385.69;5173316;27;20054;-63
2022/01/04 05:04:47;;;;;;;13.27;5.40;;;;;;;4.75;100.00;97367.47;5173793;27;20422;-63
2022/01/04 05:07:13;;;;;;;5.43;3.30;;;;;;;4.72;100.00;97367.03;5173706;27;20531;-63
2022/01/04 05:09:39;;;;;;;5.13;3.30;;;;;;;4.70;100.00;97374.78;5173555;27;20508;-62
2022/01/04 05:12:08;;;;;;;4.25;3.13;;;;;;;4.70;100.00;97374.78;5165752;27;20066;-62
2022/01/04 05:14:36;;;;;;;5.07;3.60;;;;;;;4.73;100.00;97381.41;5152459;27;20050;-61
2022/01/04 05:17:03;;;;;;;4.85;3.08;;;;;;;4.74;100.00;97379.50;5153324;27;20141;-61
2022/01/04 05:19:29;;;;;;;3.53;2.65;;;;;;;4.75;100.00;97381.03;5173336;27;20082;-61
2022/01/04 05:21:55;;;;;;;5.50;3.53;;;;;;;4.74;100.00;97391.13;5173309;27;20046;-61
2022/01/04 05:24:22;;;;;;;2.60;2.30;;;;;;;4.74;100.00;97391.13;5173179;27;20114;-58
2022/01/04 05:26:48;;;;;;;5.93;2.80;;;;;;;4.76;100.00;97391.50;5172777;27;20052;-59
2022/01/04 05:29:15;;;;;;;9.18;4.43;;;;;;;4.83;100.00;97394.34;5172374;27;20046;-59
2022/01/04 05:31:41;;;;;;;6.60;4.78;;;;;;;4.90;100.00;97393.66;5152665;27;20099;-59
2022/01/04 05:34:07;;;;;;;8.65;4.82;;;;;;;4.92;100.00;97399.47;5152144;27;20047;-59
2022/01/04 05:36:35;;;;;;;13.75;6.65;;;;;;;4.96;100.00;97403.00;5152494;27;20058;-61
2022/01/04 05:39:01;;;;;;;7.40;5.22;;;;;;;5.00;100.00;97416.63;5152585;27;20111;-61
2022/01/04 05:41:27;;;;;;;6.10;4.25;;;;;;;4.95;100.00;97421.22;5152490;27;20057;-59
2022/01/04 05:43:53;;;;;;;6.32;4.90;;;;;;;4.94;100.00;97430.53;5158576;27;20043;-59
2022/01/04 05:46:20;;;;;;;5.72;4.50;;;;;;;4.97;100.00;97434.47;5173189;27;20406;-60
2022/01/04 05:48:47;;;;;;;7.85;3.88;;;;;;;5.00;100.00;97447.31;5173194;27;20079;-60
2022/01/04 05:51:13;;;;;;;6.05;4.35;;;;;;;5.10;100.00;97443.94;5173023;27;20508;-60
2022/01/04 05:53:39;;;;;;;7.15;4.07;;;;;;;5.15;100.00;97451.72;5173054;27;20081;-58
2022/01/04 05:56:05;;;;;;;7.75;5.35;;;;;;;5.20;100.00;97464.22;5172817;27;20061;-59
2022/01/04 05:58:32;;;;;;;6.68;4.97;;;;;;;5.17;100.00;97465.72;5172815;27;20496;-59
2022/01/04 06:00:58;;;;;;;10.32;4.70;;;;;;;5.14;100.00;97476.56;5172334;27;20540;-58
2022/01/04 06:03:25;;;;;;;12.43;5.00;;;;;;;5.13;100.00;97481.22;5156087;27;20082;-63
2022/01/04 06:05:53;;;;;;;8.40;4.43;;;;;;;5.10;100.00;97492.03;5152505;27;20050;-61
2022/01/04 06:08:20;;;;;;;15.15;4.82;;;;;;;5.13;100.00;97496.72;5172435;27;20046;-61
2022/01/04 06:10:51;;;;;;;8.52;4.85;;;;;;;5.11;100.00;97490.88;5172874;27;20050;-62
2022/01/04 06:16:03;;;;;;;8.52;4.20;;;;;;;5.14;100.00;97490.16;5172615;27;20057;-62
2022/01/04 06:18:30;;;;;;;8.73;4.28;;;;;;;5.17;100.00;97492.91;5172442;27;20065;-61
2022/01/04 06:20:57;;;;;;;9.02;4.15;;;;;;;5.19;100.00;97498.72;5172683;27;20397;-56
2022/01/04 06:23:23;;;;;;;13.93;5.25;;;;;;;5.21;100.00;97508.47;5172767;27;20042;-60
2022/01/04 06:25:52;;;;;;;6.47;4.20;;;;;;;5.18;100.00;97507.25;5172370;27;20046;-58
2022/01/04 06:28:19;;;;;;;11.60;4.43;;;;;;;5.21;100.00;97509.25;5172317;27;20157;-58
2022/01/04 06:30:46;;;;;;;10.90;4.80;;;;;;;5.22;100.00;97520.88;5172418;27;20053;-59
2022/01/04 06:33:12;;;;;;;10.50;4.80;;;;;;;5.22;100.00;97518.16;5172458;27;20508;-57
2022/01/04 06:35:39;;;;;;;12.30;5.10;;;;;;;5.20;100.00;97518.56;5172326;27;20057;-58
2022/01/04 06:38:05;;;;;;;14.40;5.18;;;;;;;5.22;100.00;97529.03;5171993;27;20137;-60
2022/01/04 06:40:32;;;;;;;14.23;6.22;;;;;;;5.22;100.00;97524.38;5172293;27;20129;-59
2022/01/04 06:42:58;;;;;;;17.08;5.53;;;;;;;5.26;100.00;97532.56;5172290;27;20424;-62
2022/01/04 06:45:24;;;;;;;13.32;5.57;;;;;;;5.31;100.00;97524.88;5171035;27;20058;-62
2022/01/04 06:47:51;;;;;;;17.00;5.38;;;;;;;5.26;100.00;97527.91;5171551;27;20084;-55
2022/01/04 06:50:18;;;;;;;16.33;5.35;;;;;;;5.27;100.00;97537.66;5172173;27;20046;-59
2022/01/04 06:52:45;;;;;;;14.02;5.30;;;;;;;5.28;100.00;97541.16;5172332;27;20098;-60
2022/01/04 06:55:13;;;;;;;20.05;5.70;;;;;;;5.26;100.00;97544.22;5171907;27;20056;-61
2022/01/04 06:57:40;;;;;;;22.10;7.78;;;;;;;5.29;100.00;97542.72;5171787;27;20137;-60
2022/01/04 07:00:08;;;;;;;16.63;6.97;;;;;;;5.29;100.00;97537.28;5171715;27;20053;-60
2022/01/04 07:02:35;;;;;;;17.42;6.50;;;;;;;5.34;100.00;97540.47;5170857;27;20543;-59
2022/01/04 07:05:01;;;;;;;15.48;6.97;;;;;;;5.37;100.00;97549.81;5171781;27;20057;-62
2022/01/04 07:07:27;;;;;;;14.35;6.00;;;;;;;5.34;100.00;97555.97;5164648;27;20136;-60
2022/01/04 07:09:54;;;;;;;22.85;5.85;;;;;;;5.31;100.00;97548.56;5171823;27;20450;-60
2022/01/04 07:12:20;;;;;;;13.13;5.93;;;;;;;5.28;100.00;97552.03;5171539;27;20095;-58
2022/01/04 07:14:47;;;;;;;19.25;5.22;;;;;;;5.36;100.00;97550.94;5171016;27;20043;-62
2022/01/04 07:17:13;;;;;;;19.52;5.75;;;;;;;5.72;100.00;97544.00;5171543;27;20446;-58
2022/01/04 07:19:39;;;;;;;21.42;6.50;;;;;;;5.63;100.00;97557.91;5171785;27;20050;-58
2022/01/04 07:22:06;;;;;;;17.05;5.88;;;;;;;5.57;100.00;97581.13;5171406;27;20705;-58
2022/01/04 07:24:32;;;;;;;14.88;5.78;;;;;;;5.53;100.00;97582.22;5171499;27;20054;-57
2022/01/04 07:26:59;;;;;;;12.80;6.32;;;;;;;5.50;100.00;97586.47;5171318;27;20052;-58
2022/01/04 07:29:25;;;;;;;18.52;6.45;;;;;;;5.46;100.00;97582.13;5171368;27;20058;-57
2022/01/04 07:31:51;;;;;;;20.58;6.47;;;;;;;5.40;100.00;97581.69;5171410;27;20133;-58
2022/01/04 07:34:18;;;;;;;17.98;7.13;;;;;;;5.42;100.00;97582.88;5171232;27;20087;-58
2022/01/04 07:36:44;;;;;;;22.27;6.15;;;;;;;5.39;100.00;97588.25;5171231;27;20046;-58
2022/01/04 07:39:10;;;;;;;13.63;6.00;;;;;;;5.41;100.00;97584.03;5171172;27;20054;-58
2022/01/04 07:41:37;;;;;;;22.98;7.78;;;;;;;5.40;100.00;97589.84;5170771;27;20046;-58
2022/01/04 07:44:04;;;;;;;26.13;9.00;;;;;;;5.41;100.00;97578.59;5170918;27;20046;-58
2022/01/04 07:46:30;;;;;;;19.13;7.85;;;;;;;5.37;100.00;97590.56;5171247;27;20046;-58
2022/01/04 07:48:57;;;;;;;26.73;8.30;;;;;;;5.30;100.00;97591.25;5170876;27;20046;-58
2022/01/04 07:51:23;;;;;;;23.10;7.43;;;;;;;5.29;100.00;97581.53;5171012;27;20050;-58
2022/01/04 07:53:49;;;;;;;19.38;7.55;;;;;;;5.28;100.00;97577.25;5170923;27;20057;-58
2022/01/04 07:56:15;;;;;;;25.75;8.55;;;;;;;5.28;100.00;97571.03;5172507;27;20556;-59
2022/01/04 07:58:42;;;;;;;18.13;7.40;;;;;;;5.26;100.00;97565.97;5174594;27;20106;-58
2022/01/04 08:01:09;;;;;;;25.10;8.13;;;;;;;5.24;100.00;97568.28;5173947;27;20064;-59
2022/01/04 08:03:35;;;;;;;19.35;7.68;;;;;;;5.23;100.00;97560.47;5169758;27;20050;-58
2022/01/04 08:06:01;;;;;;;22.60;7.50;;;;;;;5.24;100.00;97570.22;5153913;27;20062;-58
2022/01/04 08:08:27;;;;;;;24.08;8.63;;;;;;;5.22;100.00;97567.06;5153848;27;20169;-58
2022/01/04 08:10:53;;;;;;;23.08;9.25;;;;;;;5.23;100.00;97566.72;5153476;27;20046;-58
2022/01/04 08:13:20;;;;;;;19.80;7.82;;;;;;;5.23;100.00;97569.44;5153370;27;20059;-57
2022/01/04 08:15:46;;;;;;;23.55;9.27;;;;;;;5.21;100.00;97565.53;5153380;27;20057;-60
2022/01/04 08:18:13;;;;;;;19.75;7.65;;;;;;;5.27;100.00;97558.63;5153554;27;20497;-57
2022/01/04 08:20:39;;;;;;;20.65;8.85;;;;;;;5.30;100.00;97564.09;5153145;27;20133;-59
2022/01/04 08:23:06;;;;;;;26.98;10.68;;;;;;;5.31;100.00;97573.81;5153312;27;20098;-59
2022/01/04 08:25:32;;;;;;;22.52;8.55;;;;;;;5.34;100.00;97570.34;5153339;27;20054;-59
2022/01/04 08:27:58;;;;;;;23.38;7.88;;;;;;;5.37;100.00;97566.91;5152983;27;20054;-59
2022/01/04 08:30:25;;;;;;;31.02;8.77;;;;;;;5.37;100.00;97574.28;5159154;27;20054;-59
2022/01/04 08:32:53;;;;;;;27.52;8.52;;;;;;;5.39;100.00;97571.94;5158682;27;20509;-59
2022/01/04 08:35:20;;;;;;;26.50;8.90;;;;;;;5.43;100.00;97586.34;5156247;27;20520;-59
2022/01/04 08:37:46;;;;;;;27.15;9.82;;;;;;;5.41;100.00;97584.03;5152924;27;20480;-59
2022/01/04 08:40:12;;;;;;;27.80;9.35;;;;;;;5.41;100.00;97594.91;5152945;27;20050;-59
2022/01/04 08:42:38;;;;;;;20.67;8.20;;;;;;;5.40;100.00;97589.84;5152755;27;20050;-59
2022/01/04 08:45:08;;;;;;;28.20;8.15;;;;;;;5.40;100.00;97606.94;5152863;27;20058;-59
2022/01/04 08:47:34;;;;;;;26.38;9.40;;;;;;;5.37;100.00;97598.72;5153161;27;20077;-59
2022/01/04 08:50:01;;;;;;;19.73;8.10;;;;;;;5.33;100.00;97606.84;5152787;27;20082;-59
2022/01/04 08:52:28;;;;;;;23.65;8.32;;;;;;;5.28;100.00;97601.72;5152930;27;20102;-59
2022/01/04 08:54:54;;;;;;;19.50;7.32;;;;;;;5.30;100.00;97604.84;5152584;27;20213;-59
2022/01/04 08:57:21;;;;;;;23.45;8.45;;;;;;;5.32;100.00;97607.97;5152963;27;20497;-59
2022/01/04 08:59:47;;;;;;;18.23;6.63;;;;;;;5.36;100.00;97611.50;5152520;27;20050;-59
2022/01/04 09:02:13;;;;;;;26.63;7.55;;;;;;;5.35;100.00;97611.88;5152719;27;20057;-59
2022/01/04 09:04:39;;;;;;;24.73;8.25;;;;;;;5.39;100.00;97620.88;5152380;27;20055;-58
2022/01/04 09:07:06;;;;;;;18.65;7.60;;;;;;;5.39;100.00;97623.59;5152053;27;20081;-59
2022/01/04 09:09:33;;;;;;;16.80;6.55;;;;;;;5.36;100.00;97630.53;5152487;27;20513;-59
2022/01/04 09:11:59;;;;;;;20.88;8.32;;;;;;;5.34;100.00;97634.78;5152382;27;20072;-59
2022/01/04 09:14:29;;;;;;;21.67;8.10;;;;;;;5.36;100.00;97644.13;5152681;27;20047;-59
2022/01/04 09:19:40;;;;;;;;;;;;;;;5.43;100.00;97633.38;5158101;27;20424;-60
2022/01/04 09:22:08;;;;;;;15.35;7.22;;;;;;;5.49;100.00;97622.94;5155173;27;19936;-63
2022/01/04 09:24:35;;;;;;;15.77;7.55;;;;;;;5.55;100.00;97629.63;5162243;27;20061;-67
2022/01/04 09:27:05;;;;;;;25.67;7.70;;;;;;;5.58;100.00;97636.25;5162749;27;20052;-61
2022/01/04 09:29:31;;;;;;;19.80;6.97;;;;;;;5.63;100.00;97644.91;5161596;27;20125;-63
2022/01/04 09:31:58;;;;;;;19.88;6.72;;;;;;;5.68;100.00;97659.31;5160673;27;20141;-63
2022/01/04 09:34:24;;;;;;;16.80;7.00;;;;;;;5.76;100.00;97660.94;5161619;27;20082;-59
2022/01/04 09:36:50;;;;;;;25.15;7.65;;;;;;;5.75;100.00;97667.56;5161755;27;20423;-60
2022/01/04 09:39:20;;;;;;;28.60;7.72;;;;;;;5.75;100.00;97659.41;5160268;27;20077;-62
2022/01/04 09:41:48;;;;;;;16.98;7.40;;;;;;;5.62;100.00;97675.94;5160371;27;20046;-62
2022/01/04 09:44:15;;;;;;;22.40;7.15;;;;;;;5.65;100.00;97671.69;5159802;27;20093;-60
2022/01/04 09:46:42;;;;;;;21.77;7.53;;;;;;;5.64;100.00;97676.34;5162195;27;20082;-62
2022/01/04 09:49:09;;;;;;;20.38;7.50;;;;;;;5.65;100.00;97679.84;5161053;27;20042;-63
2022/01/04 09:51:37;;;;;;;19.00;6.75;;;;;;;5.68;100.00;97683.78;5160231;27;20481;-63
2022/01/04 09:54:03;;;;;;;21.60;7.47;;;;;;;5.63;100.00;97688.38;5161012;27;20052;-61
2022/01/04 09:56:29;;;;;;;16.73;7.60;;;;;;;5.66;100.00;97678.69;5166039;27;20057;-64
2022/01/04 09:58:56;;;;;;;26.73;7.55;;;;;;;5.78;100.00;97674.97;5170543;27;20389;-62
2022/01/04 10:01:24;;;;;;;19.50;8.05;;;;;;;5.83;100.00;97677.34;5171857;27;20048;-61
2022/01/04 10:03:51;;;;;;;20.25;9.55;;;;;;;5.89;100.00;97671.22;5171856;27;20153;-61
2022/01/04 10:06:18;;;;;;;18.52;8.35;;;;;;;5.98;100.00;97676.41;5172688;27;20054;-63
2022/01/04 10:08:53;;;;;;;19.60;8.18;;;;;;;6.01;100.00;97678.41;5172248;27;20081;-66
2022/01/04 10:11:30;;;;;;;19.58;8.13;;;;;;;6.02;100.00;97692.78;5172590;27;20085;-68
2022/01/04 10:13:57;;;;;;;21.88;8.18;;;;;;;6.02;100.00;97696.28;5158854;27;20050;-64
2022/01/04 10:16:23;;;;;;;21.02;8.00;;;;;;;6.06;100.00;97693.59;5167541;27;20050;-62
2022/01/04 10:18:50;;;;;;;25.70;8.30;;;;;;;6.18;100.00;97692.59;5172303;27;20173;-62
2022/01/04 10:21:17;;;;;;;23.30;8.73;;;;;;;6.17;100.00;97704.63;5172539;27;20051;-62
2022/01/04 10:23:46;;;;;;;23.58;8.13;;;;;;;6.20;100.00;97709.31;5171602;27;20057;-62
2022/01/04 10:26:13;;;;;;;21.17;8.40;;;;;;;6.24;100.00;97708.22;5172036;27;20497;-62
2022/01/04 10:28:42;;;;;;;21.35;8.57;;;;;;;6.45;100.00;97706.88;5161016;27;20095;-62
2022/01/04 10:31:11;;;;;;;25.00;8.55;;;;;;;6.49;100.00;97716.63;5153335;27;20436;-61
2022/01/04 10:33:37;;;;;;;18.35;8.20;;;;;;;6.41;100.00;97733.28;5152986;27;20535;-61
2022/01/04 10:36:11;;;;;;;23.85;8.25;;;;;;;6.26;100.00;97733.09;5151256;27;20050;-61
2022/01/04 10:38:39;;;;;;;25.00;7.72;;;;;;;6.10;100.00;97746.16;5165730;27;20071;-62
2022/01/04 10:41:07;;;;;;;17.08;8.05;;;;;;;6.01;100.00;97727.38;5171693;27;20054;-60
2022/01/04 10:43:38;;;;;;;18.73;7.25;;;;;;;5.99;100.00;97731.59;5171476;27;20046;-60
2022/01/04 10:46:05;;;;;;;17.40;7.03;;;;;;;5.96;100.00;97719.50;5161990;27;20054;-60
2022/01/04 10:48:34;;;;;;;19.92;6.57;;;;;;;6.00;100.00;97714.13;5161950;27;20047;-60
2022/01/04 10:51:05;;;;;;;21.08;10.05;;;;;;;5.99;100.00;97716.06;5150271;27;20507;-60
2022/01/04 10:53:35;;;;;;;23.60;11.93;;;;;;;5.99;100.00;97726.16;5151006;27;20051;-60
2022/01/04 10:56:06;;;;;;;19.42;7.82;;;;;;;6.03;100.00;97711.47;5150948;27;20169;-60
2022/01/04 10:58:36;;;;;;;18.52;7.82;;;;;;;6.16;100.00;97714.72;5150610;27;20191;-60
2022/01/04 11:01:06;;;;;;;19.30;7.80;;;;;;;6.13;100.00;97723.59;5150366;27;20142;-62
2022/01/04 11:03:35;;;;;;;21.23;7.75;;;;;;;6.10;100.00;97741.47;5150674;27;20570;-61
2022/01/04 11:06:07;;;;;;;21.67;9.07;;;;;;;6.13;100.00;97734.50;5151014;27;20494;-61
2022/01/04 11:08:34;;;;;;;18.27;7.47;;;;;;;6.17;100.00;97745.44;5150143;27;20425;-61
2022/01/04 11:11:01;;;;;;;19.13;7.25;;;;;;;6.18;100.00;97753.22;5150643;27;20053;-61
2022/01/04 11:13:28;;;;;;;19.42;7.93;;;;;;;6.24;100.00;97756.41;5150353;27;20047;-61
2022/01/04 11:15:55;;;;;;;22.88;6.72;;;;;;;6.21;100.00;97763.38;5150464;27;20047;-62
2022/01/04 11:18:23;;;;;;;22.83;8.02;;;;;;;6.21;100.00;97770.75;5150037;27;20509;-61
2022/01/04 11:20:50;;;;;;;13.63;6.10;;;;;;;6.17;100.00;97784.31;5150589;27;20398;-62
2022/01/04 11:23:22;;;;;;;16.63;6.72;;;;;;;6.17;100.00;97783.53;5150370;27;20050;-61
2022/01/04 11:25:49;;;;;;;23.25;7.65;;;;;;;6.18;100.00;97779.66;5150091;27;20057;-62
2022/01/04 11:28:16;;;;;;;14.85;6.57;;;;;;;6.11;100.00;97767.53;5148990;27;20061;-62
2022/01/04 11:30:58;;;;;;;16.30;6.68;;;;;;;6.14;100.00;97774.19;5151089;27;20050;-61
2022/01/04 11:33:29;;;;;;;17.13;7.45;;;;;;;6.07;100.00;97766.69;5154037;27;20058;-61